Time;durP1;ratioP1;P1;durP2;ratioP2;P2;SDS_P1;SDS_P2;PMS_P1;PMS_P2;Temp;Humidity;BMP_temperature;BMP_pressure;BME280_temperature;BME280_humidity;BME280_pressure;Samples;Min_cycle;Max_cycle;Signal;HPM_P1;HPM_P2
2022/10/04 05:06:25;;;;;;;18.63;9.48;;;5.90;99.90;;;;;;6223092;23;20213;-80
2022/10/04 05:08:51;;;;;;;16.27;9.65;;;5.80;99.90;;;;;;6224656;23;20286;-75
2022/10/04 05:11:21;;;;;;;19.27;9.88;;;5.80;99.90;;;;;;6224201;23;20007;-76
2022/10/04 05:13:49;;;;;;;20.52;12.52;;;5.80;99.90;;;;;;6224275;23;20111;-79
2022/10/04 05:16:23;;;;;;;24.35;12.80;;;5.80;99.90;;;;;;6172687;23;20334;-78
2022/10/04 05:18:56;;;;;;;27.45;15.82;;;5.80;99.90;;;;;;6198392;23;20024;-77
2022/10/04 05:21:27;;;;;;;27.05;14.10;;;5.80;99.90;;;;;;6198541;23;19996;-78
2022/10/04 05:23:56;;;;;;;18.63;10.80;;;5.90;99.90;;;;;;6224818;23;20008;-79
2022/10/04 05:26:28;;;;;;;;;;;5.90;99.90;;;;;;6198379;23;20282;-79
2022/10/04 05:28:59;;;;;;;19.67;10.48;;;6.00;99.90;;;;;;6223549;23;20231;-79
2022/10/04 05:31:56;;;;;;;17.58;9.65;;;6.10;99.90;;;;;;6224383;23;20293;-80
2022/10/04 05:34:35;;;;;;;17.70;10.18;;;6.20;99.90;;;;;;6199012;23;20104;-79
2022/10/04 05:37:33;;;;;;;20.20;10.10;;;6.20;99.90;;;;;;6223198;23;19996;-79
2022/10/04 05:40:25;;;;;;;18.58;10.15;;;6.20;99.90;;;;;;6222048;23;20316;-78
2022/10/04 05:42:53;;;;;;;18.80;9.90;;;6.30;99.90;;;;;;6224009;23;20171;-76
2022/10/04 05:45:30;;;;;;;20.20;10.32;;;6.30;99.90;;;;;;6199403;23;20001;-79
2022/10/04 05:48:01;;;;;;;21.67;10.15;;;6.30;99.90;;;;;;6174549;23;20325;-77
2022/10/04 05:50:40;;;;;;;24.38;11.07;;;6.30;99.90;;;;;;6173765;23;20075;-78
2022/10/04 05:53:32;;;;;;;19.80;9.98;;;6.30;99.90;;;;;;6199731;23;20000;-82
2022/10/04 05:56:26;;;;;;;15.55;9.75;;;6.30;99.90;;;;;;6223233;23;19996;-79
2022/10/04 05:59:01;;;;;;;17.13;9.18;;;6.40;99.90;;;;;;6224537;23;20043;-79
2022/10/04 06:01:43;;;;;;;14.20;8.85;;;6.50;99.90;;;;;;6224769;23;20059;-78
2022/10/04 06:04:27;;;;;;;13.32;8.48;;;6.60;99.90;;;;;;6254105;23;20294;-79
2022/10/04 06:06:56;;;;;;;12.43;7.82;;;6.60;99.90;;;;;;6226669;23;20186;-78
2022/10/04 06:09:34;;;;;;;16.13;8.15;;;6.70;99.90;;;;;;6251470;23;20022;-79
2022/10/04 06:12:16;;;;;;;15.88;8.70;;;6.70;99.90;;;;;;6252999;22;20016;-78
2022/10/04 06:15:01;;;;;;;13.95;8.57;;;6.70;99.90;;;;;;6253488;22;20063;-77
2022/10/04 06:18:08;;;;;;;13.10;7.90;;;6.80;99.90;;;;;;6277856;22;20352;-78
2022/10/04 06:20:46;;;;;;;12.60;7.97;;;6.90;99.90;;;;;;6231024;22;20070;-78
2022/10/04 06:23:15;;;;;;;14.82;7.53;;;7.00;99.90;;;;;;6252467;23;20000;-77
2022/10/04 06:25:54;;;;;;;10.70;7.18;;;7.10;99.90;;;;;;6251224;23;19996;-77
2022/10/04 06:28:33;;;;;;;13.13;7.88;;;7.20;99.90;;;;;;6252678;22;20011;-76
2022/10/04 06:31:35;;;;;;;10.82;7.18;;;7.20;99.90;;;;;;6251361;23;20007;-80
2022/10/04 06:34:27;;;;;;;14.18;7.22;;;7.30;99.90;;;;;;6252388;22;20027;-78
2022/10/04 06:37:04;;;;;;;10.57;6.90;;;7.40;99.90;;;;;;6227384;23;20304;-80
2022/10/04 06:39:49;;;;;;;15.88;8.20;;;7.50;99.90;;;;;;6254538;22;20095;-82
2022/10/04 06:42:44;;;;;;;11.45;7.00;;;7.60;99.90;;;;;;6254237;23;20000;-82
2022/10/04 06:45:57;;;;;;;10.20;6.55;;;7.80;99.90;;;;;;6241995;23;20042;-81
2022/10/04 06:48:41;;;;;;;13.82;7.28;;;7.80;99.90;;;;;;6189782;23;20008;-79
2022/10/04 06:51:10;;;;;;;14.23;7.07;;;7.90;99.90;;;;;;6252660;23;20004;-83
2022/10/04 06:57:44;;;;;;;13.52;7.03;;;8.20;99.90;;;;;;6252171;23;20460;-80
2022/10/04 07:00:24;;;;;;;10.60;6.72;;;8.30;99.90;;;;;;6253861;22;20331;-84
2022/10/04 07:03:01;;;;;;;11.85;7.45;;;8.40;99.90;;;;;;6252419;23;20107;-81
2022/10/04 07:05:49;;;;;;;12.23;7.82;;;8.50;99.90;;;;;;6278364;22;20045;-82
2022/10/04 07:08:32;;;;;;;11.25;7.72;;;8.60;99.90;;;;;;6253523;23;20004;-82
2022/10/04 07:11:17;;;;;;;12.50;7.60;;;8.60;99.90;;;;;;6253860;22;20006;-79
2022/10/04 07:13:56;;;;;;;11.75;6.75;;;8.60;99.90;;;;;;6277469;22;20046;-79
2022/10/04 07:16:25;;;;;;;12.30;7.00;;;8.60;99.90;;;;;;6277479;22;20032;-80
2022/10/04 07:19:05;;;;;;;11.38;6.38;;;8.70;99.90;;;;;;6252580;23;19996;-83
2022/10/04 07:22:20;;;;;;;12.60;6.88;;;8.70;99.90;;;;;;6252579;23;20084;-82
2022/10/04 07:25:01;;;;;;;10.40;6.07;;;8.80;99.90;;;;;;6197421;22;20021;-84
2022/10/04 07:27:48;;;;;;;9.73;6.00;;;8.70;99.90;;;;;;6226031;23;20225;-80
2022/10/04 07:30:19;;;;;;;9.30;5.70;;;8.70;99.90;;;;;;6253000;23;20285;-83
2022/10/04 07:32:50;;;;;;;9.57;5.80;;;8.70;99.90;;;;;;6251526;23;20178;-81
2022/10/04 07:35:34;;;;;;;11.35;6.15;;;8.80;99.90;;;;;;6250660;22;20433;-78
2022/10/04 07:38:15;;;;;;;9.65;5.72;;;8.90;99.90;;;;;;6225653;23;20000;-82
2022/10/04 07:41:06;;;;;;;10.60;5.43;;;8.90;99.90;;;;;;6251396;23;20048;-78
2022/10/04 07:43:46;;;;;;;9.32;5.32;;;8.90;99.90;;;;;;6252853;23;20183;-78
2022/10/04 07:46:41;;;;;;;9.38;5.57;;;9.10;99.90;;;;;;6276179;22;20042;-78
2022/10/04 07:49:21;;;;;;;8.13;5.20;;;9.40;99.90;;;;;;6225518;23;20054;-78
2022/10/04 07:52:12;;;;;;;7.93;4.95;;;9.60;99.90;;;;;;6226991;23;20062;-80
2022/10/04 07:55:31;;;;;;;9.60;5.10;;;9.70;99.90;;;;;;6257006;23;20004;-80
2022/10/04 07:58:26;;;;;;;8.43;5.10;;;9.80;99.90;;;;;;6255823;23;20071;-78
2022/10/04 08:05:06;;;;;;;7.75;4.68;;;9.90;99.90;;;;;;6192330;23;20077;-80
2022/10/04 08:07:53;;;;;;;8.45;5.07;;;10.10;99.90;;;;;;6142131;23;20383;-80
2022/10/04 08:10:43;;;;;;;8.52;5.20;;;10.20;99.90;;;;;;6166357;23;20072;-81
2022/10/04 08:13:51;;;;;;;11.07;5.70;;;10.30;99.90;;;;;;6166442;23;20401;-82
2022/10/04 08:16:38;;;;;;;10.82;5.85;;;10.30;99.90;;;;;;6078887;23;20300;-80
2022/10/04 08:19:28;;;;;;;9.93;5.32;;;10.50;99.90;;;;;;6078830;23;20006;-82
2022/10/04 08:22:32;;;;;;;8.50;4.85;;;10.80;99.90;;;;;;6103184;23;20231;-79
2022/10/04 08:25:20;;;;;;;10.50;5.47;;;11.00;99.90;;;;;;6060653;23;20041;-79
2022/10/04 08:35:31;;;;;;;10.23;5.07;;;11.00;99.90;;;;;;6045045;23;20007;-80
2022/10/04 08:38:20;;;;;;;7.80;4.18;;;11.10;99.90;;;;;;6021729;23;20003;-81
2022/10/04 08:40:51;;;;;;;6.70;4.25;;;11.20;99.90;;;;;;6045721;23;20237;-80
2022/10/04 08:43:55;;;;;;;7.95;3.92;;;11.30;99.90;;;;;;6020857;23;20082;-78
2022/10/04 08:47:12;;;;;;;6.75;3.70;;;11.40;99.90;;;;;;6026019;23;20019;-79
2022/10/04 08:50:37;;;;;;;6.95;4.10;;;11.60;99.90;;;;;;6021318;23;20617;-81
2022/10/04 08:53:19;;;;;;;7.78;4.20;;;11.80;99.90;;;;;;5932849;24;20060;-79
2022/10/04 08:56:21;;;;;;;7.00;3.95;;;11.90;99.90;;;;;;5910258;24;20062;-84
2022/10/04 09:10:22;;;;;;;10.55;4.55;;;12.20;99.90;;;;;;5963195;23;20238;-80
2022/10/04 09:13:16;;;;;;;9.55;4.78;;;12.30;99.90;;;;;;6161318;23;20012;-82
2022/10/04 09:16:39;;;;;;;7.90;4.75;;;12.40;99.90;;;;;;6170802;23;20009;-81
2022/10/04 09:19:43;;;;;;;9.95;5.07;;;12.70;99.90;;;;;;6166513;23;20008;-80
2022/10/04 09:22:48;;;;;;;10.05;5.30;;;12.80;99.90;;;;;;6140960;23;20060;-79
2022/10/04 09:29:24;;;;;;;10.25;5.25;;;13.30;99.90;;;;;;6190615;23;20066;-79
2022/10/04 09:32:01;;;;;;;8.23;4.40;;;13.80;99.90;;;;;;6190387;23;20009;-81
2022/10/04 09:35:07;;;;;;;7.97;4.13;;;14.00;99.90;;;;;;6140444;23;20094;-80
2022/10/04 09:45:33;;;;;;;6.15;3.30;;;14.90;99.90;;;;;;6220713;23;20006;-79
2022/10/04 10:04:07;;;;;;;7.78;2.85;;;16.10;99.90;;;;;;6225086;23;20001;-81
2022/10/04 10:07:10;;;;;;;5.70;2.43;;;16.30;99.90;;;;;;6202038;23;20008;-81
2022/10/04 10:15:57;;;;;;;8.25;3.00;;;16.20;99.50;;;;;;6253189;23;20024;-81
2022/10/04 10:18:57;;;;;;;6.65;2.80;;;16.20;99.40;;;;;;6226605;23;20006;-79
2022/10/04 10:21:58;;;;;;;7.65;2.90;;;16.20;99.60;;;;;;6201568;23;20004;-82
2022/10/04 10:25:06;;;;;;;7.97;2.67;;;16.30;99.60;;;;;;6252503;23;20286;-81
2022/10/04 10:28:02;;;;;;;7.68;3.20;;;16.40;99.40;;;;;;6252315;23;20031;-82
2022/10/04 10:31:12;;;;;;;7.05;2.88;;;16.50;99.00;;;;;;6226983;23;20020;-83
2022/10/04 10:38:07;;;;;;;8.02;3.55;;;16.70;98.00;;;;;;6253596;23;20011;-82
2022/10/04 10:41:05;;;;;;;7.40;3.10;;;17.10;97.50;;;;;;6226548;23;20008;-80
2022/10/04 10:44:06;;;;;;;6.05;3.20;;;17.30;97.20;;;;;;6226017;23;20217;-83
2022/10/04 10:46:57;;;;;;;7.35;3.25;;;17.60;96.70;;;;;;6251398;23;20011;-83
2022/10/04 10:49:32;;;;;;;8.50;2.88;;;17.90;96.30;;;;;;6201654;23;20003;-80
2022/10/04 10:52:21;;;;;;;6.20;2.80;;;18.30;95.70;;;;;;6226458;23;19996;-85
2022/10/04 10:55:20;;;;;;;6.45;2.30;;;18.70;94.90;;;;;;6226618;23;20011;-83
2022/10/04 10:58:32;;;;;;;5.80;2.25;;;18.90;95.20;;;;;;6251706;23;20016;-80
2022/10/04 11:01:04;;;;;;;5.15;2.40;;;19.40;93.80;;;;;;6200399;23;20320;-82
2022/10/04 11:04:28;;;;;;;6.68;2.80;;;19.90;92.90;;;;;;6252397;23;20034;-80
2022/10/04 11:06:53;;;;;;;3.75;2.38;;;20.10;92.00;;;;;;6226071;23;20051;-82
2022/10/04 11:09:58;;;;;;;7.65;2.33;;;20.10;91.70;;;;;;6212216;23;20058;-80
2022/10/04 11:12:48;;;;;;;3.97;2.03;;;20.90;91.60;;;;;;6225060;23;20427;-77
2022/10/04 11:15:54;;;;;;;6.07;2.70;;;21.60;90.50;;;;;;6200154;23;20011;-80
2022/10/04 11:18:42;;;;;;;9.18;2.63;;;22.60;87.20;;;;;;6252148;23;20008;-79
2022/10/04 11:21:44;;;;;;;6.13;2.28;;;23.20;84.10;;;;;;6252508;23;20003;-79
2022/10/04 11:24:43;;;;;;;4.15;1.70;;;23.80;82.00;;;;;;6200914;23;20000;-83
2022/10/04 11:30:25;;;;;;;;;;;24.70;78.30;;;;;;6225818;23;20022;-82
2022/10/04 11:33:21;;;;;;;5.75;1.88;;;24.90;76.10;;;;;;6251492;23;19903;-83
2022/10/04 11:36:07;;;;;;;5.15;2.03;;;25.50;76.20;;;;;;6226117;23;20197;-82
2022/10/04 11:38:56;;;;;;;3.90;1.80;;;25.90;74.10;;;;;;6225607;23;20000;-82
2022/10/04 11:41:40;;;;;;;5.68;1.90;;;26.40;73.30;;;;;;6225515;23;20045;-82
2022/10/04 11:44:33;;;;;;;5.05;1.90;;;26.30;72.00;;;;;;6226057;23;20000;-81
2022/10/04 11:47:09;;;;;;;5.13;2.10;;;25.80;71.90;;;;;;6252881;23;20035;-81
2022/10/04 11:50:02;;;;;;;7.50;2.10;;;25.70;71.50;;;;;;6225952;23;20000;-80
2022/10/04 11:52:47;;;;;;;4.88;1.98;;;25.60;71.60;;;;;;6252140;23;20294;-79
2022/10/04 11:55:38;;;;;;;5.63;1.80;;;25.30;72.90;;;;;;6225913;23;20004;-81
2022/10/04 11:58:27;;;;;;;3.83;1.52;;;26.40;70.90;;;;;;6252354;23;20134;-79
2022/10/04 12:01:31;;;;;;;4.10;2.05;;;26.90;69.20;;;;;;6229371;23;20000;-78
2022/10/04 12:04:30;;;;;;;5.03;1.90;;;27.10;68.90;;;;;;6220233;23;20289;-80
2022/10/04 12:07:21;;;;;;;4.88;1.77;;;27.60;67.20;;;;;;6253085;23;20012;-79
2022/10/04 12:09:52;;;;;;;5.00;1.77;;;28.20;66.70;;;;;;6228947;23;20039;-80
2022/10/04 12:12:36;;;;;;;3.50;1.55;;;29.00;64.80;;;;;;6232186;23;20000;-82
2022/10/04 12:15:38;;;;;;;4.25;2.00;;;29.00;64.60;;;;;;6261932;23;20016;-78
2022/10/04 12:18:25;;;;;;;4.20;1.70;;;28.80;64.30;;;;;;6258366;23;20000;-78
2022/10/04 12:21:21;;;;;;;4.68;1.88;;;29.10;64.40;;;;;;6256047;23;20206;-77
2022/10/04 12:24:38;;;;;;;5.10;1.45;;;28.90;63.30;;;;;;6230299;23;20034;-80
2022/10/04 12:27:33;;;;;;;5.75;1.52;;;28.50;64.20;;;;;;6207546;23;20016;-80
2022/10/04 12:30:19;;;;;;;5.32;1.60;;;28.70;65.60;;;;;;6226448;23;20043;-79
2022/10/04 12:32:57;;;;;;;4.75;1.83;;;28.50;64.20;;;;;;6252479;23;20051;-79
2022/10/04 12:35:46;;;;;;;5.05;2.40;;;27.70;64.60;;;;;;6251977;23;20064;-81
2022/10/04 12:38:48;;;;;;;5.57;2.00;;;27.10;65.80;;;;;;6225530;23;20282;-80
2022/10/04 12:41:38;;;;;;;4.78;1.95;;;27.00;66.10;;;;;;6225586;23;20182;-78
2022/10/04 12:44:27;;;;;;;4.72;1.88;;;27.90;65.90;;;;;;6252491;23;20118;-78
2022/10/04 12:46:52;;;;;;;6.25;1.95;;;29.30;63.30;;;;;;6254186;23;20292;-80
2022/10/04 12:49:45;;;;;;;4.68;1.80;;;30.50;63.50;;;;;;6254595;23;20007;-80
2022/10/04 12:52:22;;;;;;;5.28;1.80;;;31.70;60.40;;;;;;6254131;23;20007;-81
2022/10/04 12:55:10;;;;;;;6.13;1.70;;;32.80;58.90;;;;;;6254225;23;20047;-80
2022/10/04 12:57:45;;;;;;;;;;;33.50;58.30;;;;;;6254300;23;20298;-80
2022/10/04 13:00:23;;;;;;;4.97;1.25;;;33.40;56.00;;;;;;6227478;23;20085;-81
2022/10/04 13:03:01;;;;;;;4.63;1.85;;;33.90;56.40;;;;;;6253978;23;20289;-82
2022/10/04 13:05:46;;;;;;;3.10;1.60;;;33.30;56.40;;;;;;6253823;23;20064;-81
2022/10/04 13:08:36;;;;;;;3.97;1.80;;;34.30;55.60;;;;;;6252256;23;19996;-80
2022/10/04 13:11:50;;;;;;;3.30;1.35;;;34.40;55.70;;;;;;6254075;23;20282;-82
2022/10/04 13:14:34;;;;;;;4.80;1.70;;;34.70;53.60;;;;;;6187407;23;20333;-80
2022/10/04 13:17:23;;;;;;;3.67;1.58;;;35.00;53.30;;;;;;6227134;23;19996;-80
2022/10/04 13:20:37;;;;;;;4.82;1.70;;;35.40;52.70;;;;;;6227087;23;20023;-77
2022/10/04 13:23:37;;;;;;;4.03;1.80;;;36.50;54.00;;;;;;6226831;23;20035;-82
2022/10/04 13:26:27;;;;;;;4.05;1.85;;;36.60;51.50;;;;;;6253420;23;19996;-77
2022/10/04 13:29:11;;;;;;;;;;;37.20;51.30;;;;;;6227852;23;20004;-81
2022/10/04 13:32:05;;;;;;;3.47;1.35;;;37.60;50.40;;;;;;6253159;23;19905;-81
2022/10/04 13:35:17;;;;;;;3.75;1.30;;;37.70;49.50;;;;;;6199591;23;24409;-81
2022/10/04 13:38:05;;;;;;;4.45;1.23;;;37.40;50.30;;;;;;6225816;23;20119;-80
2022/10/04 13:40:54;;;;;;;5.50;1.98;;;37.90;49.40;;;;;;6253273;23;20027;-79
2022/10/04 13:43:39;;;;;;;2.85;1.25;;;37.70;49.10;;;;;;6253397;23;20015;-81
2022/10/04 13:46:33;;;;;;;6.95;1.98;;;38.40;48.70;;;;;;6226648;23;20006;-81
2022/10/04 13:49:26;;;;;;;5.05;1.30;;;37.90;49.70;;;;;;6253516;23;20012;-81
2022/10/04 13:58:05;;;;;;;4.18;1.20;;;38.60;49.20;;;;;;6252444;23;20008;-82
2022/10/04 14:01:00;;;;;;;3.38;1.30;;;39.40;48.40;;;;;;6200982;23;20000;-83
2022/10/04 14:03:29;;;;;;;3.08;1.38;;;39.70;48.40;;;;;;6226164;23;20055;-82
2022/10/04 14:06:12;;;;;;;5.30;1.00;;;39.10;48.70;;;;;;6253040;23;20016;-81
2022/10/04 14:08:56;;;;;;;3.22;1.08;;;38.60;48.10;;;;;;6225840;23;20000;-81
2022/10/04 14:11:55;;;;;;;3.50;1.08;;;39.00;49.60;;;;;;6253125;23;19996;-80
2022/10/04 14:14:59;;;;;;;4.60;1.30;;;39.10;47.40;;;;;;6253634;23;20011;-78
2022/10/04 14:17:59;;;;;;;4.00;1.50;;;38.90;48.10;;;;;;6226251;23;19996;-81
2022/10/04 14:21:12;;;;;;;3.03;1.38;;;39.20;47.50;;;;;;6225180;23;20056;-81
2022/10/04 14:24:15;;;;;;;3.03;1.20;;;38.60;48.00;;;;;;6225656;23;20012;-79
2022/10/04 14:27:12;;;;;;;4.35;1.17;;;39.60;49.00;;;;;;6226182;23;19996;-79
2022/10/04 14:30:42;;;;;;;2.63;0.98;;;39.70;48.70;;;;;;6226185;23;20004;-79
2022/10/04 14:33:19;;;;;;;3.22;1.10;;;40.60;51.80;;;;;;6148959;23;20071;-77
2022/10/04 14:36:00;;;;;;;4.97;1.50;;;40.40;50.30;;;;;;6134867;23;20017;-80
2022/10/04 14:38:51;;;;;;;4.18;1.40;;;39.50;49.30;;;;;;6236220;23;20338;-79
2022/10/04 14:41:54;;;;;;;2.95;1.13;;;39.00;50.60;;;;;;6226020;23;20004;-78
2022/10/04 14:44:20;;;;;;;3.10;1.30;;;38.90;50.10;;;;;;6252626;23;20186;-78
2022/10/04 14:46:59;;;;;;;3.67;1.15;;;38.60;48.90;;;;;;6251861;23;20004;-79
2022/10/04 14:49:47;;;;;;;2.42;1.10;;;38.20;49.10;;;;;;6252933;23;20047;-79
2022/10/04 14:52:36;;;;;;;3.03;1.20;;;37.00;49.40;;;;;;6197442;23;20058;-79
2022/10/04 14:55:33;;;;;;;2.35;1.10;;;37.00;50.60;;;;;;6253080;23;20051;-80
2022/10/04 14:58:31;;;;;;;3.28;1.13;;;36.10;50.20;;;;;;6201156;23;20071;-79
2022/10/04 15:01:28;;;;;;;2.67;1.10;;;36.30;50.20;;;;;;6200913;23;20229;-82
2022/10/04 15:04:13;;;;;;;2.87;1.10;;;36.30;50.10;;;;;;6253102;23;20010;-82
2022/10/04 15:06:59;;;;;;;3.47;1.20;;;35.90;52.40;;;;;;6225959;23;20440;-80
2022/10/04 15:09:50;;;;;;;3.38;1.20;;;36.20;51.80;;;;;;6252432;23;20027;-80
2022/10/04 15:12:35;;;;;;;2.30;0.90;;;36.50;50.90;;;;;;6201484;23;20012;-83
2022/10/04 15:15:13;;;;;;;4.20;1.30;;;36.40;52.10;;;;;;6200947;23;20039;-79
2022/10/04 15:17:50;;;;;;;4.57;1.20;;;35.90;50.60;;;;;;6200264;23;20004;-80
2022/10/04 15:20:53;;;;;;;3.55;1.10;;;35.60;50.00;;;;;;6225799;23;20225;-79
2022/10/04 15:23:41;;;;;;;2.15;1.05;;;34.80;50.90;;;;;;6226111;23;20000;-80
2022/10/04 15:26:22;;;;;;;6.30;1.33;;;34.30;51.50;;;;;;6253300;23;20024;-79
2022/10/04 15:28:53;;;;;;;4.63;3.20;;;34.20;52.10;;;;;;6225918;23;20000;-80
2022/10/04 15:31:41;;;;;;;2.97;1.50;;;34.10;52.30;;;;;;6228822;23;20023;-80
2022/10/04 15:34:25;;;;;;;;;;;34.00;51.30;;;;;;6253448;23;20011;-80
2022/10/04 15:37:00;;;;;;;3.20;1.10;;;34.20;52.20;;;;;;6225810;23;20117;-78
2022/10/04 15:39:51;;;;;;;5.30;1.38;;;34.20;53.70;;;;;;6251995;23;20287;-80
2022/10/04 15:42:28;;;;;;;3.42;1.30;;;34.30;51.00;;;;;;6252018;23;20051;-77
2022/10/04 15:45:25;;;;;;;3.70;1.47;;;33.90;52.20;;;;;;6252604;23;20004;-78
2022/10/04 15:48:34;;;;;;;2.95;1.40;;;34.10;52.40;;;;;;6225824;23;20042;-82
2022/10/04 15:51:07;;;;;;;3.83;1.20;;;33.80;52.40;;;;;;6225617;23;20000;-79
2022/10/04 15:53:49;;;;;;;3.75;1.25;;;33.90;54.20;;;;;;6225290;23;20066;-78
2022/10/04 15:56:23;;;;;;;3.85;1.63;;;34.20;52.10;;;;;;6252834;23;20000;-79
2022/10/04 15:59:17;;;;;;;3.03;1.48;;;34.20;51.10;;;;;;6252784;23;20000;-79
2022/10/04 16:02:21;;;;;;;3.50;1.27;;;34.20;51.10;;;;;;6252236;23;20007;-80
2022/10/04 16:05:02;;;;;;;2.50;1.27;;;33.90;50.90;;;;;;6219798;23;20035;-79
2022/10/04 16:07:39;;;;;;;3.08;1.38;;;34.20;50.70;;;;;;6221538;23;20000;-80
2022/10/04 16:10:32;;;;;;;3.15;1.25;;;34.30;52.20;;;;;;6222061;23;20064;-77
2022/10/04 16:13:55;;;;;;;3.28;1.20;;;34.50;54.20;;;;;;6222060;23;20009;-84
2022/10/04 16:16:51;;;;;;;2.95;1.20;;;33.80;51.80;;;;;;6072213;23;20363;-83
2022/10/04 16:20:00;;;;;;;3.70;0.90;;;33.30;52.40;;;;;;6049742;23;20007;-81
2022/10/04 16:23:09;;;;;;;;;;;32.50;53.40;;;;;;6075074;23;20010;-82
2022/10/04 16:25:38;;;;;;;3.85;1.27;;;30.90;54.20;;;;;;6073265;23;19908;-79
2022/10/04 16:28:34;;;;;;;2.33;1.00;;;29.30;55.70;;;;;;6073954;23;20094;-80
2022/10/04 16:31:37;;;;;;;3.85;1.40;;;27.80;60.60;;;;;;6049558;23;20010;-82
2022/10/04 16:34:08;;;;;;;16.52;12.10;;;26.40;62.90;;;;;;6049905;23;20018;-79
2022/10/04 16:37:10;;;;;;;6.30;3.33;;;25.60;65.30;;;;;;6049467;23;20037;-78
2022/10/04 16:42:49;;;;;;;5.93;3.08;;;24.40;70.50;;;;;;6073887;23;20070;-82
2022/10/04 16:45:51;;;;;;;4.22;2.40;;;24.00;71.40;;;;;;6034400;23;19909;-81
2022/10/04 16:48:22;;;;;;;6.05;1.98;;;23.50;72.20;;;;;;6050341;23;20074;-79
2022/10/04 16:51:16;;;;;;;7.50;3.38;;;23.00;73.00;;;;;;6195881;23;20016;-80
2022/10/04 16:53:48;;;;;;;6.90;3.03;;;22.50;76.00;;;;;;6196190;23;20005;-80
2022/10/04 16:56:20;;;;;;;5.75;2.70;;;22.20;77.20;;;;;;6198285;23;20012;-81
2022/10/04 16:58:59;;;;;;;7.20;2.90;;;21.80;77.10;;;;;;6222957;23;20012;-82
2022/10/04 17:01:50;;;;;;;4.40;2.25;;;21.40;78.00;;;;;;6222279;23;20001;-80
2022/10/04 17:04:34;;;;;;;4.97;2.33;;;21.10;78.20;;;;;;6229773;23;20307;-77
2022/10/04 17:07:12;;;;;;;4.97;2.03;;;20.70;82.10;;;;;;6253982;23;19996;-77
2022/10/04 17:10:04;;;;;;;6.83;2.40;;;20.60;82.80;;;;;;6252947;23;20000;-76
2022/10/04 17:12:55;;;;;;;5.25;2.38;;;20.40;82.50;;;;;;6253315;23;20736;-77
2022/10/04 17:15:32;;;;;;;5.28;2.70;;;20.30;83.30;;;;;;6253750;23;20000;-78
2022/10/04 17:18:07;;;;;;;5.05;2.30;;;20.00;81.60;;;;;;6226690;23;20094;-78
2022/10/04 17:20:49;;;;;;;7.97;4.35;;;19.70;82.00;;;;;;6253537;23;20004;-78
2022/10/04 17:23:46;;;;;;;6.80;4.15;;;19.60;84.40;;;;;;6226791;23;20012;-80
2022/10/04 17:26:26;;;;;;;8.10;3.95;;;19.30;84.90;;;;;;6253495;23;20000;-78
2022/10/04 17:29:00;;;;;;;5.57;3.78;;;19.00;86.50;;;;;;6253404;23;20000;-77
2022/10/04 17:31:47;;;;;;;27.02;21.77;;;18.90;87.70;;;;;;6252939;23;20306;-77
2022/10/04 17:34:32;;;;;;;7.50;4.40;;;18.80;89.60;;;;;;6253192;23;20079;-77
2022/10/04 17:37:19;;;;;;;5.72;3.25;;;18.70;90.20;;;;;;6254101;23;20027;-76
2022/10/04 17:39:58;;;;;;;5.47;3.22;;;18.50;89.50;;;;;;6252930;23;20023;-78
2022/10/04 17:42:35;;;;;;;7.43;3.83;;;18.30;90.90;;;;;;6253266;23;20016;-78
2022/10/04 17:45:40;;;;;;;7.07;3.58;;;18.30;91.10;;;;;;6253280;23;20008;-77
2022/10/04 17:57:47;;;;;;;9.55;5.75;;;17.60;91.80;;;;;;6239934;23;20011;-78
2022/10/04 18:00:16;;;;;;;10.48;7.30;;;17.50;92.90;;;;;;6251764;23;20026;-78
2022/10/04 18:02:51;;;;;;;8.02;5.18;;;17.40;93.20;;;;;;6252324;23;20007;-78
2022/10/04 18:05:32;;;;;;;7.60;4.82;;;17.30;93.80;;;;;;6251357;23;20070;-79
2022/10/04 18:08:06;;;;;;;10.23;5.07;;;17.20;94.30;;;;;;6253058;23;20002;-78
2022/10/04 18:10:38;;;;;;;7.35;4.90;;;17.10;94.10;;;;;;6252749;23;20226;-78
2022/10/04 18:13:38;;;;;;;7.57;4.32;;;16.90;94.70;;;;;;6253331;23;20012;-77
2022/10/04 18:16:21;;;;;;;7.60;4.50;;;16.70;95.60;;;;;;6253690;23;20074;-78
2022/10/04 18:18:47;;;;;;;8.60;4.20;;;16.60;96.40;;;;;;6252484;23;20118;-77
2022/10/04 18:21:26;;;;;;;9.20;5.10;;;16.60;96.70;;;;;;6227373;23;20229;-77
2022/10/04 18:23:58;;;;;;;11.32;6.82;;;16.40;96.80;;;;;;6253884;23;20008;-77
2022/10/04 18:26:30;;;;;;;15.18;11.18;;;16.30;97.90;;;;;;6254065;23;20006;-77
2022/10/04 18:28:59;;;;;;;13.02;6.63;;;16.30;98.20;;;;;;6252055;23;20190;-78
2022/10/04 18:31:29;;;;;;;9.10;6.22;;;16.30;98.50;;;;;;6254135;23;20059;-77
2022/10/04 18:34:27;;;;;;;9.88;6.75;;;16.10;98.60;;;;;;6253978;23;20004;-78
2022/10/04 18:36:53;;;;;;;8.60;5.93;;;16.00;99.70;;;;;;6253281;23;20000;-77
2022/10/04 18:39:21;;;;;;;9.23;5.30;;;15.90;99.70;;;;;;6227604;23;20039;-77
2022/10/04 18:42:16;;;;;;;10.32;5.40;;;15.80;99.90;;;;;;6226747;23;20004;-78
2022/10/04 18:44:59;;;;;;;7.25;4.53;;;15.50;99.90;;;;;;6253822;23;20015;-78
2022/10/04 18:47:39;;;;;;;10.73;4.65;;;15.30;99.90;;;;;;6253881;23;20079;-77
2022/10/04 18:50:20;;;;;;;6.38;4.22;;;15.20;99.90;;;;;;6254844;23;20266;-77
2022/10/04 18:52:54;;;;;;;7.97;4.22;;;15.00;99.90;;;;;;6253660;23;20118;-78
2022/10/04 18:55:34;;;;;;;8.07;4.60;;;14.90;99.90;;;;;;6254251;23;20031;-76
2022/10/04 19:05:04;;;;;;;9.82;4.28;;;14.70;99.90;;;;;;6232489;23;20020;-77
2022/10/04 19:07:39;;;;;;;7.85;4.95;;;14.70;99.90;;;;;;6254033;23;20278;-79
2022/10/04 19:10:26;;;;;;;10.43;6.20;;;14.70;99.90;;;;;;6227024;23;20004;-78
2022/10/04 19:13:13;;;;;;;11.00;7.05;;;14.60;99.90;;;;;;6252637;23;20030;-78
2022/10/04 19:16:16;;;;;;;11.75;7.75;;;14.50;99.90;;;;;;6226775;23;20000;-77
2022/10/04 19:19:00;;;;;;;10.38;5.50;;;14.40;99.90;;;;;;6226287;23;20231;-77
2022/10/04 19:21:29;;;;;;;8.05;4.78;;;14.30;99.90;;;;;;6253872;23;20008;-77
2022/10/04 19:24:06;;;;;;;;;;;14.20;99.90;;;;;;6252943;23;20000;-78
2022/10/04 19:26:42;;;;;;;8.43;4.90;;;14.10;99.90;;;;;;6251961;23;19946;-78
2022/10/04 19:29:20;;;;;;;7.15;4.47;;;14.10;99.90;;;;;;6253771;23;20007;-78
2022/10/04 19:31:59;;;;;;;8.38;4.80;;;14.10;99.90;;;;;;6253113;23;20038;-77
2022/10/04 19:34:42;;;;;;;7.75;4.78;;;14.10;99.90;;;;;;6226338;23;20012;-78
2022/10/04 19:37:34;;;;;;;7.68;4.47;;;14.10;99.90;;;;;;6253790;23;20054;-78
2022/10/04 19:40:18;;;;;;;7.50;4.28;;;14.10;99.90;;;;;;6251757;23;20014;-78
2022/10/04 19:43:05;;;;;;;7.75;4.70;;;14.10;99.90;;;;;;6253613;23;20000;-78
2022/10/04 19:45:41;;;;;;;7.80;5.40;;;14.00;99.90;;;;;;6253722;23;20035;-78
2022/10/04 19:48:19;;;;;;;9.43;5.25;;;13.90;99.90;;;;;;6226865;23;20302;-77
2022/10/04 19:50:52;;;;;;;8.87;5.33;;;13.90;99.90;;;;;;6253133;23;20077;-78
2022/10/04 19:53:34;;;;;;;8.82;5.32;;;13.80;99.90;;;;;;6254323;23;20008;-77
2022/10/04 19:56:03;;;;;;;10.32;4.72;;;13.80;99.90;;;;;;6255290;23;20028;-77
2022/10/04 19:58:44;;;;;;;8.38;5.03;;;13.70;99.90;;;;;;6228965;23;20007;-78
2022/10/04 20:01:15;;;;;;;10.70;5.43;;;13.70;99.90;;;;;;6255961;23;20289;-78
2022/10/04 20:03:41;;;;;;;7.10;4.47;;;13.70;99.90;;;;;;6229609;23;20004;-78
2022/10/04 20:06:07;;;;;;;7.03;3.90;;;13.60;99.90;;;;;;6255495;23;20175;-78
2022/10/04 20:08:56;;;;;;;9.23;4.43;;;13.50;99.90;;;;;;6256394;23;19996;-78
2022/10/04 20:11:47;;;;;;;6.22;4.25;;;13.50;99.90;;;;;;6256445;23;20007;-77
2022/10/04 20:14:16;;;;;;;7.38;4.50;;;13.50;99.90;;;;;;6229063;23;20321;-77
2022/10/04 20:16:47;;;;;;;6.53;4.35;;;13.50;99.90;;;;;;6255625;23;19988;-77
2022/10/04 20:19:35;;;;;;;9.52;5.63;;;13.50;99.90;;;;;;6256260;23;20000;-78
2022/10/04 20:22:07;;;;;;;9.18;5.03;;;13.50;99.90;;;;;;6255359;23;20007;-79
2022/10/04 20:24:35;;;;;;;9.00;4.97;;;13.50;99.90;;;;;;6255538;23;20014;-77
2022/10/04 20:27:05;;;;;;;7.78;5.35;;;13.40;99.90;;;;;;6228464;23;20000;-77
2022/10/04 20:29:37;;;;;;;8.98;5.30;;;13.30;99.90;;;;;;6255619;23;20006;-79
2022/10/04 20:32:07;;;;;;;8.98;5.47;;;13.20;99.90;;;;;;6227836;23;20055;-77
2022/10/04 20:34:53;;;;;;;8.98;5.25;;;13.20;99.90;;;;;;6256045;23;20081;-77
2022/10/04 20:37:20;;;;;;;8.77;5.68;;;13.20;99.90;;;;;;6255605;23;20000;-79
2022/10/04 20:39:46;;;;;;;9.02;5.03;;;13.00;99.90;;;;;;6255354;23;20335;-78
2022/10/04 20:42:25;;;;;;;6.97;5.38;;;12.90;99.90;;;;;;6255557;23;20004;-77
2022/10/04 20:45:07;;;;;;;8.98;5.05;;;12.90;99.90;;;;;;6255335;23;20000;-76
2022/10/04 20:47:39;;;;;;;9.85;5.65;;;12.90;99.90;;;;;;6255892;23;20060;-76
2022/10/04 20:50:08;;;;;;;9.80;5.65;;;12.90;99.90;;;;;;6255032;23;20051;-76
2022/10/04 20:52:35;;;;;;;10.80;6.18;;;12.80;99.90;;;;;;6255440;23;20004;-77
2022/10/04 20:55:11;;;;;;;10.13;5.85;;;12.80;99.90;;;;;;6254927;23;20000;-78
2022/10/04 20:57:39;;;;;;;13.15;8.30;;;12.70;99.90;;;;;;6255368;23;20022;-76
2022/10/04 21:00:16;;;;;;;19.75;14.90;;;12.60;99.90;;;;;;6227884;23;20313;-78
2022/10/04 21:02:42;;;;;;;16.15;10.65;;;12.50;99.90;;;;;;6257418;23;20000;-78